createdAt,value
2018-07-24T00:00:32.000Z,33.4
2018-07-24T00:02:32.000Z,33.4
2018-07-24T00:03:32.000Z,33.3
2018-07-24T00:05:32.000Z,33.3
2018-07-24T00:07:32.000Z,33.2
2018-07-24T00:09:32.000Z,33.2
2018-07-24T00:11:32.000Z,33.1
2018-07-24T00:12:32.000Z,33.1
2018-07-24T00:14:32.000Z,33.2
2018-07-24T00:15:32.000Z,33.2
2018-07-24T00:17:32.000Z,33.2
2018-07-24T00:19:16.000Z,33.2
2018-07-24T00:20:32.000Z,33.2
2018-07-24T00:22:16.000Z,33.2
2018-07-24T00:23:32.000Z,33.1
2018-07-24T00:25:32.000Z,33.1
2018-07-24T00:27:32.000Z,33.1
2018-07-24T00:29:32.000Z,33.1
2018-07-24T00:31:32.000Z,33
2018-07-24T00:32:32.000Z,33
2018-07-24T00:33:32.000Z,33.1
2018-07-24T00:35:32.000Z,33.1
2018-07-24T00:37:32.000Z,33.1
2018-07-24T00:38:32.000Z,33.1
2018-07-24T00:40:32.000Z,33.1
2018-07-24T00:42:31.000Z,33
2018-07-24T00:43:31.000Z,33
2018-07-24T00:44:31.000Z,33.1
2018-07-24T00:46:31.000Z,33.1
2018-07-24T00:47:31.000Z,33.1
2018-07-24T00:48:31.000Z,33.1
2018-07-24T00:49:31.000Z,33.2
2018-07-24T00:50:31.000Z,33.2
2018-07-24T00:52:31.000Z,33.2
2018-07-24T00:53:31.000Z,33.3
2018-07-24T00:55:31.000Z,33.2
2018-07-24T00:57:16.000Z,33.2
2018-07-24T00:58:31.000Z,33.1
2018-07-24T01:00:31.000Z,33.1
2018-07-24T01:02:31.000Z,33
2018-07-24T01:03:31.000Z,33
2018-07-24T01:04:31.000Z,33.1
2018-07-24T01:05:31.000Z,33.2
2018-07-24T01:06:31.000Z,33.2
2018-07-24T01:08:31.000Z,33.3
2018-07-24T01:10:31.000Z,33.2
2018-07-24T01:11:31.000Z,33.2
2018-07-24T01:12:31.000Z,33.2
2018-07-24T01:13:31.000Z,33.2
2018-07-24T01:14:31.000Z,33.2
2018-07-24T01:16:31.000Z,33.3
2018-07-24T01:18:31.000Z,33.2
2018-07-24T01:19:31.000Z,33.2
2018-07-24T01:21:31.000Z,33.2
2018-07-24T01:22:31.000Z,33.2
2018-07-24T01:23:31.000Z,33.2
2018-07-24T01:25:31.000Z,33.1
2018-07-24T01:27:31.000Z,33
2018-07-24T01:28:31.000Z,33
2018-07-24T01:29:31.000Z,33
2018-07-24T01:30:31.000Z,33.1
2018-07-24T01:32:31.000Z,33.1
2018-07-24T01:33:31.000Z,33.1
2018-07-24T01:34:31.000Z,33.1
2018-07-24T01:36:31.000Z,33.1
2018-07-24T01:38:31.000Z,33.1
2018-07-24T01:40:31.000Z,33.1
2018-07-24T01:42:31.000Z,33
2018-07-24T01:44:31.000Z,33
2018-07-24T01:45:31.000Z,33
2018-07-24T01:47:31.000Z,33
2018-07-24T01:49:31.000Z,32.9
2018-07-24T01:50:31.000Z,32.9
2018-07-24T01:52:31.000Z,32.9
2018-07-24T01:53:31.000Z,32.9
2018-07-24T01:55:31.000Z,32.9
2018-07-24T01:57:31.000Z,32.8
2018-07-24T01:58:31.000Z,32.8
2018-07-24T01:59:31.000Z,32.8
2018-07-24T02:01:31.000Z,32.9
2018-07-24T02:03:31.000Z,32.9
2018-07-24T02:05:31.000Z,32.9
2018-07-24T02:07:31.000Z,32.9
2018-07-24T02:09:31.000Z,32.9
2018-07-24T02:11:31.000Z,32.9
2018-07-24T02:13:31.000Z,32.8
2018-07-24T02:15:16.000Z,32.8
2018-07-24T02:16:31.000Z,32.8
2018-07-24T02:18:31.000Z,32.8
2018-07-24T02:19:31.000Z,32.8
2018-07-24T02:21:31.000Z,32.9
2018-07-24T02:23:31.000Z,32.9
2018-07-24T02:25:31.000Z,32.8
2018-07-24T02:27:31.000Z,32.8
2018-07-24T02:29:31.000Z,32.8
2018-07-24T02:30:31.000Z,32.8
2018-07-24T02:32:31.000Z,32.8
2018-07-24T02:33:31.000Z,32.9
2018-07-24T02:34:31.000Z,32.9
2018-07-24T02:36:31.000Z,33
2018-07-24T02:37:31.000Z,33
2018-07-24T02:39:31.000Z,33
2018-07-24T02:41:31.000Z,33
2018-07-24T02:42:31.000Z,33
2018-07-24T02:44:31.000Z,33
2018-07-24T02:45:31.000Z,33
2018-07-24T02:47:31.000Z,33
2018-07-24T02:48:31.000Z,33.1
2018-07-24T02:49:32.000Z,33.1
2018-07-24T02:50:32.000Z,33.1
2018-07-24T02:52:16.000Z,33.2
2018-07-24T02:53:32.000Z,33.1
2018-07-24T02:54:32.000Z,33.1
2018-07-24T02:55:32.000Z,33.1
2018-07-24T02:57:32.000Z,33.2
2018-07-24T02:59:32.000Z,33.1
2018-07-24T03:01:32.000Z,33
2018-07-24T03:03:32.000Z,33
2018-07-24T03:05:32.000Z,33
2018-07-24T03:06:32.000Z,33
2018-07-24T03:08:32.000Z,33
2018-07-24T03:09:32.000Z,33
2018-07-24T03:10:32.000Z,33
2018-07-24T03:12:32.000Z,33
2018-07-24T03:13:32.000Z,33
2018-07-24T03:14:32.000Z,33
2018-07-24T03:15:32.000Z,33
2018-07-24T03:17:32.000Z,33.1
2018-07-24T03:19:32.000Z,33
2018-07-24T03:20:32.000Z,33
2018-07-24T03:22:32.000Z,32.9
2018-07-24T03:24:32.000Z,32.9
2018-07-24T03:26:32.000Z,32.9
2018-07-24T03:27:32.000Z,32.9
2018-07-24T03:29:32.000Z,32.9
2018-07-24T03:30:32.000Z,32.9
2018-07-24T03:32:32.000Z,32.9
2018-07-24T03:34:32.000Z,32.9
2018-07-24T03:35:32.000Z,32.9
2018-07-24T03:37:32.000Z,32.9
2018-07-24T03:39:32.000Z,32.9
2018-07-24T03:40:32.000Z,32.9
2018-07-24T03:41:32.000Z,33
2018-07-24T03:42:32.000Z,33.1
2018-07-24T03:44:32.000Z,33.1
2018-07-24T03:46:32.000Z,33.1
2018-07-24T03:47:32.000Z,33.1
2018-07-24T03:48:32.000Z,33.1
2018-07-24T03:50:32.000Z,33.2
2018-07-24T03:52:32.000Z,33.1
2018-07-24T03:53:32.000Z,33.1
2018-07-24T03:55:16.000Z,33.1
2018-07-24T03:56:32.000Z,33.1
2018-07-24T03:58:32.000Z,33.1
2018-07-24T03:59:32.000Z,33.1
2018-07-24T04:01:32.000Z,33
2018-07-24T04:03:32.000Z,33
2018-07-24T04:04:32.000Z,32.9
2018-07-24T04:06:32.000Z,33
2018-07-24T04:08:32.000Z,33
2018-07-24T04:10:32.000Z,33
2018-07-24T04:12:32.000Z,32.9
2018-07-24T04:14:32.000Z,32.8
2018-07-24T04:16:32.000Z,32.8
2018-07-24T04:17:32.000Z,32.8
2018-07-24T04:18:32.000Z,32.8
2018-07-24T04:20:32.000Z,32.5
2018-07-24T04:22:32.000Z,30.5
2018-07-24T04:23:32.000Z,29.7
2018-07-24T04:25:32.000Z,28.3
2018-07-24T04:26:32.000Z,27.7
2018-07-24T04:28:32.000Z,26.9
2018-07-24T04:29:32.000Z,26.6
2018-07-24T04:30:32.000Z,26.3
2018-07-24T04:32:32.000Z,25.9
2018-07-24T04:36:18.000Z,25.4
2018-07-24T04:38:17.000Z,25.3
2018-07-24T04:40:17.000Z,25
2018-07-24T04:41:17.000Z,24.9
2018-07-24T04:43:17.000Z,24.8
2018-07-24T04:44:17.000Z,24.7
2018-07-24T04:46:17.000Z,24.5
2018-07-24T04:47:17.000Z,24.5
2018-07-24T04:49:17.000Z,24.4
2018-07-24T04:50:17.000Z,24.4
2018-07-24T04:51:17.000Z,24.4
2018-07-24T04:53:17.000Z,24.3
2018-07-24T04:55:17.000Z,24.2
2018-07-24T04:57:17.000Z,24.3
2018-07-24T04:58:17.000Z,24.3
2018-07-24T04:59:17.000Z,24.5
2018-07-24T05:01:17.000Z,24.7
2018-07-24T05:02:17.000Z,24.7
2018-07-24T05:04:17.000Z,24.7
2018-07-24T05:05:17.000Z,24.7
2018-07-24T05:06:17.000Z,24.7
2018-07-24T05:08:17.000Z,24.7
2018-07-24T05:10:17.000Z,24.8
2018-07-24T05:11:17.000Z,24.8
2018-07-24T05:13:17.000Z,24.9
2018-07-24T05:14:17.000Z,24.9
2018-07-24T05:16:17.000Z,24.9
2018-07-24T05:17:17.000Z,25
2018-07-24T05:18:17.000Z,25
2018-07-24T05:20:17.000Z,25.1
2018-07-24T05:22:17.000Z,25.2
2018-07-24T05:24:17.000Z,25.1
2018-07-24T05:25:17.000Z,25.1
2018-07-24T05:27:17.000Z,25.2
2018-07-24T05:28:17.000Z,25.3
2018-07-24T05:29:17.000Z,25.4
2018-07-24T05:31:17.000Z,25.5
2018-07-24T05:32:17.000Z,25.5
2018-07-24T05:34:01.000Z,25.5
2018-07-24T05:35:17.000Z,25.3
2018-07-24T05:36:17.000Z,25.2
2018-07-24T05:38:17.000Z,25.1
2018-07-24T05:40:17.000Z,24.9
2018-07-24T05:42:17.000Z,24.8
2018-07-24T05:44:17.000Z,24.7
2018-07-24T05:46:01.000Z,24.8
2018-07-24T05:47:17.000Z,24.8
2018-07-24T05:48:17.000Z,24.9
2018-07-24T05:49:17.000Z,25
2018-07-24T05:51:17.000Z,25.4
2018-07-24T05:52:17.000Z,25.6
2018-07-24T05:53:17.000Z,25.7
2018-07-24T05:55:17.000Z,26
2018-07-24T05:57:17.000Z,26
2018-07-24T05:58:17.000Z,25.9
2018-07-24T06:00:17.000Z,26.1
2018-07-24T06:02:17.000Z,26.2
2018-07-24T06:03:17.000Z,26.3
2018-07-24T06:05:17.000Z,26.4
2018-07-24T06:06:17.000Z,26.5
2018-07-24T06:07:17.000Z,26.5
2018-07-24T06:09:02.000Z,26.6
2018-07-24T06:10:17.000Z,26.4
2018-07-24T06:12:02.000Z,26.3
2018-07-24T06:13:17.000Z,26.1
2018-07-24T06:15:17.000Z,26.1
2018-07-24T06:17:17.000Z,26
2018-07-24T06:19:17.000Z,26
2018-07-24T06:21:17.000Z,25.9
2018-07-24T06:22:17.000Z,26
2018-07-24T06:24:17.000Z,26.1
2018-07-24T06:25:17.000Z,26.1
2018-07-24T06:26:17.000Z,26.2
2018-07-24T06:27:17.000Z,26.3
2018-07-24T06:29:17.000Z,26.4
2018-07-24T06:31:17.000Z,26.4
2018-07-24T06:32:17.000Z,26.6
2018-07-24T06:34:17.000Z,26.8
2018-07-24T06:36:17.000Z,26.8
2018-07-24T06:37:17.000Z,26.9
2018-07-24T06:39:17.000Z,27.1
2018-07-24T06:41:17.000Z,27.1
2018-07-24T06:43:17.000Z,27.2
2018-07-24T06:44:17.000Z,27.4
2018-07-24T06:45:17.000Z,27.5
2018-07-24T06:46:17.000Z,27.6
2018-07-24T06:48:17.000Z,27.9
2018-07-24T06:49:17.000Z,28
2018-07-24T06:50:17.000Z,28.1
2018-07-24T06:51:17.000Z,28.1
2018-07-24T06:53:17.000Z,28.1
2018-07-24T06:54:17.000Z,28.2
2018-07-24T06:55:17.000Z,28.3
2018-07-24T06:56:17.000Z,28.4
2018-07-24T06:58:17.000Z,28.6
2018-07-24T06:59:17.000Z,28.7
2018-07-24T07:01:17.000Z,29
2018-07-24T07:03:17.000Z,29.1
2018-07-24T07:04:17.000Z,29.2
2018-07-24T07:06:17.000Z,29.4
2018-07-24T07:08:17.000Z,29.6
2018-07-24T07:10:01.000Z,29.8
2018-07-24T07:11:17.000Z,29.7
2018-07-24T07:12:17.000Z,29.8
2018-07-24T07:13:17.000Z,29.8
2018-07-24T07:15:17.000Z,30
2018-07-24T07:16:17.000Z,30.1
2018-07-24T07:18:17.000Z,30.2
2018-07-24T07:19:17.000Z,30.3
2018-07-24T07:21:17.000Z,30.4
2018-07-24T07:22:17.000Z,30.5
2018-07-24T07:23:17.000Z,30.6
2018-07-24T07:24:17.000Z,30.7
2018-07-24T07:26:17.000Z,30.9
2018-07-24T07:27:17.000Z,30.9
2018-07-24T07:29:01.000Z,31.1
2018-07-24T07:30:17.000Z,31.1
2018-07-24T07:31:17.000Z,31.1
2018-07-24T07:33:17.000Z,31.1
2018-07-24T07:35:17.000Z,31.1
2018-07-24T07:37:17.000Z,31.1
2018-07-24T07:38:17.000Z,31.1
2018-07-24T07:40:17.000Z,31.1
2018-07-24T07:41:17.000Z,31
2018-07-24T07:42:17.000Z,31
2018-07-24T07:43:17.000Z,31
2018-07-24T07:45:17.000Z,31.3
2018-07-24T07:47:17.000Z,31.4
2018-07-24T07:49:17.000Z,31.5
2018-07-24T07:51:17.000Z,31.6
2018-07-24T07:52:17.000Z,31.7
2018-07-24T07:54:17.000Z,31.9
2018-07-24T07:56:17.000Z,32
2018-07-24T07:58:17.000Z,32
2018-07-24T08:00:17.000Z,32.1
2018-07-24T08:01:17.000Z,32.1
2018-07-24T08:02:17.000Z,32.2
2018-07-24T08:04:17.000Z,32.2
2018-07-24T08:05:17.000Z,32.2
2018-07-24T08:06:17.000Z,32.2
2018-07-24T08:07:17.000Z,32.2
2018-07-24T08:09:17.000Z,32.2
2018-07-24T08:10:17.000Z,32.2
2018-07-24T08:12:17.000Z,32.3
2018-07-24T08:13:17.000Z,32.3
2018-07-24T08:15:17.000Z,32.4
2018-07-24T08:16:17.000Z,32.5
2018-07-24T08:18:17.000Z,32.8
2018-07-24T08:19:17.000Z,32.8
2018-07-24T08:21:17.000Z,32.9
2018-07-24T08:22:17.000Z,33
2018-07-24T08:24:17.000Z,33.1
2018-07-24T08:25:17.000Z,33.1
2018-07-24T08:27:02.000Z,33.2
2018-07-24T08:28:17.000Z,33.3
2018-07-24T08:30:02.000Z,33.4
2018-07-24T08:31:17.000Z,33.5
2018-07-24T08:33:17.000Z,33.5
2018-07-24T08:35:17.000Z,33.6
2018-07-24T08:36:17.000Z,33.5
2018-07-24T08:38:17.000Z,33.6
2018-07-24T08:40:17.000Z,33.8
2018-07-24T08:41:17.000Z,33.9
2018-07-24T08:42:17.000Z,34
2018-07-24T08:44:17.000Z,34
2018-07-24T08:45:17.000Z,34
2018-07-24T08:46:17.000Z,33.8
2018-07-24T08:48:17.000Z,33.6
2018-07-24T08:50:17.000Z,33.6
2018-07-24T08:51:17.000Z,33.7
2018-07-24T08:52:17.000Z,33.7
2018-07-24T08:53:17.000Z,33.6
2018-07-24T08:54:17.000Z,33.5
2018-07-24T08:55:17.000Z,33.5
2018-07-24T08:57:17.000Z,33.4
2018-07-24T08:58:17.000Z,33.5
2018-07-24T08:59:17.000Z,33.4
2018-07-24T09:00:17.000Z,33.5
2018-07-24T09:02:17.000Z,33.8
2018-07-24T09:04:17.000Z,33.9
2018-07-24T09:06:02.000Z,34
2018-07-24T09:08:17.000Z,33.9
2018-07-24T09:09:17.000Z,33.9
2018-07-24T09:11:02.000Z,33.9
2018-07-24T09:12:17.000Z,33.9
2018-07-24T09:13:17.000Z,33.8
2018-07-24T09:14:17.000Z,33.8
2018-07-24T09:16:17.000Z,33.4
2018-07-24T09:17:17.000Z,33.2
2018-07-24T09:19:17.000Z,33.3
2018-07-24T09:20:17.000Z,33.4
2018-07-24T09:21:17.000Z,33.6
2018-07-24T09:22:17.000Z,33.7
2018-07-24T09:24:17.000Z,33.8
2018-07-24T09:26:17.000Z,33.9
2018-07-24T09:28:17.000Z,34
2018-07-24T09:29:17.000Z,34
2018-07-24T09:30:17.000Z,34
2018-07-24T09:31:17.000Z,34
2018-07-24T09:33:02.000Z,34.1
2018-07-24T09:34:17.000Z,34.2
2018-07-24T09:36:02.000Z,34.2
2018-07-24T09:37:17.000Z,34
2018-07-24T09:39:17.000Z,34
2018-07-24T09:41:17.000Z,34.1
2018-07-24T09:43:17.000Z,34.2
2018-07-24T09:44:17.000Z,34.3
2018-07-24T09:45:17.000Z,34.5
2018-07-24T09:46:17.000Z,34.6
2018-07-24T09:48:17.000Z,34.9
2018-07-24T09:50:17.000Z,34.9
2018-07-24T09:51:17.000Z,34.9
2018-07-24T09:53:17.000Z,35
2018-07-24T09:54:17.000Z,35.1
2018-07-24T09:56:17.000Z,35.1
2018-07-24T09:58:02.000Z,35.1
2018-07-24T09:59:17.000Z,34.8
2018-07-24T10:01:17.000Z,34.8
2018-07-24T10:03:17.000Z,34.9
2018-07-24T10:04:17.000Z,34.9
2018-07-24T10:06:17.000Z,34.8
2018-07-24T10:08:17.000Z,34.7
2018-07-24T10:10:17.000Z,34.7
2018-07-24T10:12:17.000Z,34.7
2018-07-24T10:13:17.000Z,34.7
2018-07-24T10:14:17.000Z,34.8
2018-07-24T10:16:17.000Z,34.9
2018-07-24T10:18:17.000Z,35
2018-07-24T10:19:17.000Z,35.2
2018-07-24T10:20:17.000Z,35.2
2018-07-24T10:22:02.000Z,35.2
2018-07-24T10:23:17.000Z,35.2
2018-07-24T10:24:17.000Z,35.2
2018-07-24T10:25:17.000Z,35.2
2018-07-24T10:26:17.000Z,35.3
2018-07-24T10:27:17.000Z,35.4
2018-07-24T10:29:17.000Z,35.7
2018-07-24T10:31:17.000Z,35.7
2018-07-24T10:32:17.000Z,35.7
2018-07-24T10:33:17.000Z,35.6
2018-07-24T10:35:17.000Z,35.4
2018-07-24T10:36:17.000Z,35.4
2018-07-24T10:37:17.000Z,35.4
2018-07-24T10:38:17.000Z,35.4
2018-07-24T10:40:17.000Z,35.4
2018-07-24T10:42:17.000Z,35.3
2018-07-24T10:44:17.000Z,34.9
2018-07-24T10:46:02.000Z,34.8
2018-07-24T10:47:17.000Z,34.7
2018-07-24T10:48:17.000Z,34.7
2018-07-24T10:50:17.000Z,34.5
2018-07-24T10:52:17.000Z,34.2
2018-07-24T10:54:17.000Z,34.2
2018-07-24T10:55:17.000Z,34.3
2018-07-24T10:57:17.000Z,34.5
2018-07-24T10:59:17.000Z,34.5
2018-07-24T11:01:17.000Z,34.4
2018-07-24T11:03:17.000Z,34.3
2018-07-24T11:04:17.000Z,34.4
2018-07-24T11:05:17.000Z,34.5
2018-07-24T11:06:17.000Z,34.7
2018-07-24T11:08:17.000Z,35.2
2018-07-24T11:10:17.000Z,35.5
2018-07-24T11:12:17.000Z,35.4
2018-07-24T11:13:17.000Z,35.2
2018-07-24T11:15:17.000Z,34.8
2018-07-24T11:16:17.000Z,34.9
2018-07-24T11:18:17.000Z,35.1
2018-07-24T11:19:17.000Z,35.2
2018-07-24T11:21:17.000Z,35.3
2018-07-24T11:22:17.000Z,35.4
2018-07-24T11:23:17.000Z,35.4
2018-07-24T11:25:17.000Z,35.1
2018-07-24T11:26:17.000Z,35.1
2018-07-24T11:27:17.000Z,35.2
2018-07-24T11:29:17.000Z,35.3
2018-07-24T11:31:02.000Z,35.5
2018-07-24T11:32:17.000Z,35.5
2018-07-24T11:33:17.000Z,35.5
2018-07-24T11:35:17.000Z,35.5
2018-07-24T11:37:17.000Z,35.3
2018-07-24T11:38:17.000Z,35.2
2018-07-24T11:39:17.000Z,35.2
2018-07-24T11:41:17.000Z,35.4
2018-07-24T11:43:02.000Z,35.5
2018-07-24T11:44:17.000Z,35.7
2018-07-24T11:46:17.000Z,35.7
2018-07-24T11:48:17.000Z,35.7
2018-07-24T11:49:17.000Z,35.8
2018-07-24T11:50:17.000Z,35.9
2018-07-24T11:52:17.000Z,35.8
2018-07-24T11:54:17.000Z,35.7
2018-07-24T11:56:17.000Z,35.7
2018-07-24T11:57:17.000Z,35.7
2018-07-24T11:58:17.000Z,35.7
2018-07-24T12:00:17.000Z,35.8
2018-07-24T12:01:17.000Z,35.7
2018-07-24T12:03:17.000Z,35.7
2018-07-24T12:05:17.000Z,35.6
2018-07-24T12:07:17.000Z,35.5
2018-07-24T12:08:17.000Z,35.5
2018-07-24T12:10:17.000Z,35.7
2018-07-24T12:11:17.000Z,35.8
2018-07-24T12:13:17.000Z,36
2018-07-24T12:15:17.000Z,36.1
2018-07-24T12:16:17.000Z,36.1
2018-07-24T12:18:17.000Z,36.2
2018-07-24T12:19:17.000Z,36.2
2018-07-24T12:20:17.000Z,36.1
2018-07-24T12:22:17.000Z,36
2018-07-24T12:24:17.000Z,35.9
2018-07-24T12:26:17.000Z,35.8
2018-07-24T12:27:17.000Z,35.8
2018-07-24T12:29:01.000Z,35.9
2018-07-24T12:30:17.000Z,35.8
2018-07-24T12:31:17.000Z,35.8
2018-07-24T12:33:17.000Z,35.8
2018-07-24T12:35:17.000Z,35.8
2018-07-24T12:37:17.000Z,35.8
2018-07-24T12:39:17.000Z,35.7
2018-07-24T12:40:17.000Z,35.7
2018-07-24T12:41:17.000Z,35.8
2018-07-24T12:43:17.000Z,35.8
2018-07-24T12:44:17.000Z,35.8
2018-07-24T12:46:17.000Z,35.7
2018-07-24T12:48:17.000Z,35.7
2018-07-24T12:49:17.000Z,35.7
2018-07-24T12:51:17.000Z,35.7
2018-07-24T12:53:17.000Z,35.7
2018-07-24T12:55:17.000Z,35.8
2018-07-24T12:56:17.000Z,35.8
2018-07-24T12:58:17.000Z,35.7
2018-07-24T12:59:17.000Z,35.7
2018-07-24T13:01:17.000Z,35.7
2018-07-24T13:02:17.000Z,35.7
2018-07-24T13:03:17.000Z,35.8
2018-07-24T13:05:17.000Z,35.8
2018-07-24T13:07:17.000Z,35.8
2018-07-24T13:08:17.000Z,35.8
2018-07-24T13:10:17.000Z,35.8
2018-07-24T13:12:01.000Z,35.8
2018-07-24T13:13:17.000Z,35.7
2018-07-24T13:15:17.000Z,35.7
2018-07-24T13:16:17.000Z,35.7
2018-07-24T13:18:17.000Z,35.7
2018-07-24T13:19:17.000Z,35.8
2018-07-24T13:20:17.000Z,35.9
2018-07-24T13:22:17.000Z,36
2018-07-24T13:23:17.000Z,36
2018-07-24T13:25:18.000Z,36
2018-07-24T13:26:18.000Z,36.1
2018-07-24T13:27:18.000Z,36.1
2018-07-24T13:29:02.000Z,36.2
2018-07-24T13:30:18.000Z,36.1
2018-07-24T13:32:18.000Z,36.1
2018-07-24T13:34:18.000Z,36
2018-07-24T13:35:18.000Z,36
2018-07-24T13:37:18.000Z,36
2018-07-24T13:38:18.000Z,36
2018-07-24T13:39:18.000Z,36
2018-07-24T13:40:18.000Z,36
2018-07-24T13:42:18.000Z,36
2018-07-24T13:44:02.000Z,36
2018-07-24T13:45:18.000Z,36
2018-07-24T13:47:18.000Z,35.9
2018-07-24T13:48:18.000Z,35.9
2018-07-24T13:50:18.000Z,36
2018-07-24T13:51:18.000Z,36
2018-07-24T13:53:18.000Z,36
2018-07-24T13:55:18.000Z,36
2018-07-24T13:56:18.000Z,36
2018-07-24T13:57:18.000Z,36
2018-07-24T13:59:18.000Z,36
2018-07-24T14:01:18.000Z,36
2018-07-24T14:02:18.000Z,36
2018-07-24T14:04:18.000Z,36
2018-07-24T14:05:18.000Z,36
2018-07-24T14:07:18.000Z,36
2018-07-24T14:09:18.000Z,35.9
2018-07-24T14:10:18.000Z,35.9
2018-07-24T14:12:18.000Z,35.8
2018-07-24T14:13:18.000Z,35.8
2018-07-24T14:15:18.000Z,35.8
2018-07-24T14:16:18.000Z,35.9
2018-07-24T14:17:18.000Z,35.9
2018-07-24T14:18:18.000Z,36
2018-07-24T14:20:18.000Z,36
2018-07-24T14:22:18.000Z,36
2018-07-24T14:23:18.000Z,36
2018-07-24T14:25:18.000Z,35.9
2018-07-24T14:26:18.000Z,35.9
2018-07-24T14:27:18.000Z,36
2018-07-24T14:29:18.000Z,36
2018-07-24T14:31:02.000Z,36
2018-07-24T14:32:18.000Z,36
2018-07-24T14:33:18.000Z,36
2018-07-24T14:35:02.000Z,36
2018-07-24T14:36:18.000Z,35.9
2018-07-24T14:38:18.000Z,35.9
2018-07-24T14:39:18.000Z,35.9
2018-07-24T14:40:18.000Z,35.9
2018-07-24T14:42:18.000Z,35.9
2018-07-24T14:44:18.000Z,35.8
2018-07-24T14:45:18.000Z,35.8
2018-07-24T14:46:18.000Z,35.8
2018-07-24T14:48:18.000Z,35.8
2018-07-24T14:49:18.000Z,35.8
2018-07-24T14:50:18.000Z,35.9
2018-07-24T14:52:18.000Z,35.9
2018-07-24T14:53:18.000Z,35.9
2018-07-24T14:54:18.000Z,36
2018-07-24T14:56:02.000Z,36
2018-07-24T14:57:18.000Z,36
2018-07-24T14:59:18.000Z,36
2018-07-24T15:01:18.000Z,35.9
2018-07-24T15:02:18.000Z,35.9
2018-07-24T15:03:18.000Z,35.9
2018-07-24T15:04:18.000Z,36
2018-07-24T15:05:18.000Z,36
2018-07-24T15:07:18.000Z,36.1
2018-07-24T15:09:18.000Z,36
2018-07-24T15:10:18.000Z,36
2018-07-24T15:12:18.000Z,36
2018-07-24T15:14:18.000Z,35.9
2018-07-24T15:15:18.000Z,35.9
2018-07-24T15:17:18.000Z,35.9
2018-07-24T15:19:18.000Z,35.9
2018-07-24T15:20:18.000Z,35.9
2018-07-24T15:22:18.000Z,35.9
2018-07-24T15:24:18.000Z,35.9
2018-07-24T15:26:18.000Z,35.8
2018-07-24T15:27:18.000Z,35.7
2018-07-24T15:29:18.000Z,35.8
2018-07-24T15:31:18.000Z,35.7
2018-07-24T15:33:17.000Z,35.7
2018-07-24T15:34:17.000Z,35.7
2018-07-24T15:36:17.000Z,35.8
2018-07-24T15:38:17.000Z,35.7
2018-07-24T15:39:17.000Z,35.7
2018-07-24T15:41:17.000Z,35.7
2018-07-24T15:42:17.000Z,35.6
2018-07-24T15:44:17.000Z,35.7
2018-07-24T15:45:17.000Z,35.7
2018-07-24T15:46:17.000Z,35.8
2018-07-24T15:48:17.000Z,35.8
2018-07-24T15:49:17.000Z,35.9
2018-07-24T15:51:17.000Z,35.9
2018-07-24T15:53:17.000Z,35.9
2018-07-24T15:55:17.000Z,35.9
2018-07-24T15:57:17.000Z,35.8
2018-07-24T15:58:17.000Z,35.8
2018-07-24T16:00:17.000Z,35.8
2018-07-24T16:02:17.000Z,35.7
2018-07-24T16:04:02.000Z,35.7
2018-07-24T16:05:17.000Z,35.7
2018-07-24T16:06:17.000Z,35.7
2018-07-24T16:07:17.000Z,35.8
2018-07-24T16:08:17.000Z,35.8
2018-07-24T16:10:17.000Z,35.9
2018-07-24T16:12:17.000Z,35.9
2018-07-24T16:13:17.000Z,35.9
2018-07-24T16:15:17.000Z,35.9
2018-07-24T16:16:17.000Z,36
2018-07-24T16:18:17.000Z,36.1
2018-07-24T16:19:17.000Z,36.2
2018-07-24T16:21:17.000Z,36.2
2018-07-24T16:22:17.000Z,36.3
2018-07-24T16:24:17.000Z,36.3
2018-07-24T16:25:17.000Z,36.3
2018-07-24T16:27:17.000Z,36.3
2018-07-24T16:28:17.000Z,36.4
2018-07-24T16:30:17.000Z,36.4
2018-07-24T16:31:17.000Z,36.4
2018-07-24T16:32:17.000Z,36.5
2018-07-24T16:34:17.000Z,36.5
2018-07-24T16:36:17.000Z,36.4
2018-07-24T16:38:17.000Z,36.3
2018-07-24T16:39:17.000Z,36.2
2018-07-24T16:41:17.000Z,36.3
2018-07-24T16:42:17.000Z,36.3
2018-07-24T16:43:17.000Z,36.3
2018-07-24T16:45:17.000Z,36.3
2018-07-24T16:47:02.000Z,36.2
2018-07-24T16:48:17.000Z,36.2
2018-07-24T16:49:17.000Z,36.2
2018-07-24T16:50:17.000Z,36.3
2018-07-24T16:51:17.000Z,36.3
2018-07-24T16:53:17.000Z,36.4
2018-07-24T16:54:17.000Z,36.5
2018-07-24T16:56:17.000Z,36.5
2018-07-24T16:58:17.000Z,36.4
2018-07-24T16:59:17.000Z,36.4
2018-07-24T17:00:17.000Z,36.4
2018-07-24T17:02:17.000Z,36.4
2018-07-24T17:03:17.000Z,36.5
2018-07-24T17:04:17.000Z,36.5
2018-07-24T17:06:17.000Z,36.5
2018-07-24T17:08:17.000Z,36.4
2018-07-24T17:09:17.000Z,36.4
2018-07-24T17:11:17.000Z,36.4
2018-07-24T17:13:17.000Z,36.4
2018-07-24T17:14:17.000Z,36.4
2018-07-24T17:15:17.000Z,36.4
2018-07-24T17:17:17.000Z,36.4
2018-07-24T17:19:02.000Z,36.3
2018-07-24T17:20:17.000Z,36.3
2018-07-24T17:22:02.000Z,36.3
2018-07-24T17:23:17.000Z,36.2
2018-07-24T17:25:02.000Z,36.2
2018-07-24T17:26:17.000Z,36.2
2018-07-24T17:28:17.000Z,36.1
2018-07-24T17:29:17.000Z,36.1
2018-07-24T17:31:17.000Z,36.1
2018-07-24T17:32:17.000Z,36.2
2018-07-24T17:33:17.000Z,36.2
2018-07-24T17:34:17.000Z,36.2
2018-07-24T17:35:17.000Z,36.3
2018-07-24T17:37:17.000Z,36.3
2018-07-24T17:39:17.000Z,36.3
2018-07-24T17:41:02.000Z,36.3
2018-07-24T17:42:17.000Z,36.2
2018-07-24T17:43:17.000Z,36.2
2018-07-24T17:44:17.000Z,36.2
2018-07-24T17:46:17.000Z,36.2
2018-07-24T17:47:17.000Z,36.2
2018-07-24T17:49:17.000Z,36.2
2018-07-24T17:50:17.000Z,36.2
2018-07-24T17:52:17.000Z,36.2
2018-07-24T17:54:17.000Z,36.2
2018-07-24T17:55:17.000Z,36.2
2018-07-24T17:57:17.000Z,36.2
2018-07-24T17:59:17.000Z,36.1
2018-07-24T18:00:17.000Z,36
2018-07-24T18:01:17.000Z,36
2018-07-24T18:03:17.000Z,36
2018-07-24T18:04:17.000Z,36
2018-07-24T18:06:17.000Z,36
2018-07-24T18:07:17.000Z,36
2018-07-24T18:09:17.000Z,36
2018-07-24T18:10:17.000Z,36.1
2018-07-24T18:12:17.000Z,36
2018-07-24T18:13:17.000Z,36
2018-07-24T18:14:17.000Z,36
2018-07-24T18:16:17.000Z,36
2018-07-24T18:18:17.000Z,36
2018-07-24T18:20:17.000Z,35.9
2018-07-24T18:21:17.000Z,35.9
2018-07-24T18:23:17.000Z,35.9
2018-07-24T18:24:17.000Z,35.9
2018-07-24T18:26:17.000Z,36
2018-07-24T18:28:17.000Z,35.9
2018-07-24T18:29:17.000Z,35.9
2018-07-24T18:31:17.000Z,36
2018-07-24T18:33:17.000Z,35.9
2018-07-24T18:34:17.000Z,35.9
2018-07-24T18:36:02.000Z,35.9
2018-07-24T18:37:17.000Z,35.9
2018-07-24T18:38:17.000Z,35.9
2018-07-24T18:40:17.000Z,35.9
2018-07-24T18:42:17.000Z,35.8
2018-07-24T18:44:17.000Z,35.7
2018-07-24T18:46:02.000Z,35.6
2018-07-24T18:47:17.000Z,35.6
2018-07-24T18:49:17.000Z,35.5
2018-07-24T18:50:17.000Z,35.5
2018-07-24T18:52:17.000Z,35.5
2018-07-24T18:53:17.000Z,35.5
2018-07-24T18:54:17.000Z,35.5
2018-07-24T18:55:17.000Z,35.6
2018-07-24T18:56:17.000Z,35.7
2018-07-24T18:58:17.000Z,35.7
2018-07-24T18:59:17.000Z,35.7
2018-07-24T19:00:17.000Z,35.8
2018-07-24T19:02:02.000Z,35.8
2018-07-24T19:03:17.000Z,35.7
2018-07-24T19:04:17.000Z,35.6
2018-07-24T19:06:17.000Z,35.5
2018-07-24T19:08:17.000Z,35.4
2018-07-24T19:10:02.000Z,35.3
2018-07-24T19:11:17.000Z,35.2
2018-07-24T19:13:17.000Z,35.1
2018-07-24T19:15:17.000Z,35
2018-07-24T19:17:17.000Z,34.9
2018-07-24T19:19:17.000Z,34.9
2018-07-24T19:20:17.000Z,35
2018-07-24T19:21:17.000Z,35
2018-07-24T19:23:17.000Z,35
2018-07-24T19:25:17.000Z,35
2018-07-24T19:26:17.000Z,35
2018-07-24T19:28:17.000Z,35
2018-07-24T19:29:17.000Z,35
2018-07-24T19:30:17.000Z,35
2018-07-24T19:32:17.000Z,35
2018-07-24T19:34:17.000Z,35.1
2018-07-24T19:35:17.000Z,35.1
2018-07-24T19:36:17.000Z,35.1
2018-07-24T19:37:17.000Z,35.1
2018-07-24T19:39:17.000Z,35.1
2018-07-24T19:40:17.000Z,35
2018-07-24T19:42:17.000Z,35
2018-07-24T19:43:17.000Z,35
2018-07-24T19:45:17.000Z,35
2018-07-24T19:47:17.000Z,34.9
2018-07-24T19:49:17.000Z,34.7
2018-07-24T19:51:17.000Z,34.6
2018-07-24T19:53:17.000Z,34.5
2018-07-24T19:55:17.000Z,34.5
2018-07-24T19:57:17.000Z,34.5
2018-07-24T19:58:17.000Z,34.4
2018-07-24T20:00:17.000Z,34.5
2018-07-24T20:01:17.000Z,34.5
2018-07-24T20:03:17.000Z,34.5
2018-07-24T20:05:17.000Z,34.5
2018-07-24T20:06:17.000Z,34.5
2018-07-24T20:08:17.000Z,34.5
2018-07-24T20:09:17.000Z,34.5
2018-07-24T20:11:17.000Z,34.6
2018-07-24T20:13:17.000Z,34.5
2018-07-24T20:14:17.000Z,34.5
2018-07-24T20:15:17.000Z,34.5
2018-07-24T20:17:02.000Z,34.5
2018-07-24T20:18:17.000Z,34.4
2018-07-24T20:19:17.000Z,34.4
2018-07-24T20:20:17.000Z,34.4
2018-07-24T20:22:17.000Z,34.4
2018-07-24T20:23:17.000Z,34.4
2018-07-24T20:25:17.000Z,34.4
2018-07-24T20:26:17.000Z,34.4
2018-07-24T20:28:17.000Z,34.4
2018-07-24T20:29:17.000Z,34.4
2018-07-24T20:31:17.000Z,34.4
2018-07-24T20:32:17.000Z,34.4
2018-07-24T20:34:17.000Z,34.4
2018-07-24T20:35:17.000Z,34.4